Ana Sayfa
METAR-TAF:

METAR-TAF

Havaalanları :

Amerika Birleşik Devletleri Deniz Harp Okulu

Annapolis, Maryland, Amerika Birleşik Devletleri

Enlem: 38-59-29N, Boylam: 076-29-00W, yükseklik: 2 m

Güncel hava durumu gözlemi

Rapor saat 09:54 UTC de 39 dakika önce yapıldı.
Sakin rüzgar
Sıcaklık 27°C
Nem 74%
Basınç 1012 hPa
Görüş mesafesi: 16.1 km
Açık gökyüzü

METAR: KNAK 220954Z AUTO 00000KT 10SM CLR 27/22 A2987 RMK AO2 SLP116 T02670222 $

Saat: 06:33 (10:33 UTC)


TAF: eksik

4.000'den fazla havaalanı için hava durumu gözlemleri ve tahminleri (METAR ve TAF raporları).

Kullanılabilir istasyonlar harita üzerinde sarı ve kırmızı noktalarla gösterilir.

İstasyonun adını görmek için fareyi noktanın üzerinde gezdirin.

Sonrasında hava gözlem ve tahminlerini görmek için tıklayın.

Haritayı değiştirmek için: yaklaştırmak için siyah artı işaretli yeşil düğmeye ve uzaklaştırmak için de eksi işaretli düğmeye hızla tıklayın; bitişik haritalar için yeşil okları kullanın.


METAR-TAF: